Time;durP1;ratioP1;P1;durP2;ratioP2;P2;SDS_P1;SDS_P2;PMS_P1;PMS_P2;Temp;Humidity;BMP_temperature;BMP_pressure;BME280_temperature;BME280_humidity;BME280_pressure;Samples;Min_cycle;Max_cycle;Signal;HPM_P1;HPM_P2
2023/03/31 00:01:56;;;;;;;;;;;11.40;99.90;;;;;;6160003;23;19920;-89
2023/03/31 00:04:22;;;;;;;;;;;9.60;99.90;;;;;;6158993;23;20402;-89
2023/03/31 00:06:49;;;;;;;;;;;7.90;99.90;;;;;;6158932;23;20327;-89
2023/03/31 00:09:17;;;;;;;;;;;9.20;99.90;;;;;;6183446;23;19927;-88
2023/03/31 00:11:44;;;;;;;;;;;9.60;99.90;;;;;;6159551;23;19921;-90
2023/03/31 00:14:10;;;;;;;;;;;9.50;99.90;;;;;;6158885;23;19926;-91
2023/03/31 00:16:36;;;;;;;;;;;9.60;99.90;;;;;;6161727;23;19926;-89
2023/03/31 00:19:02;;;;;;;;;;;9.80;99.90;;;;;;6171357;23;20030;-89
2023/03/31 00:21:36;;;;;;;;;;;9.70;99.90;;;;;;6205170;23;19984;-90
2023/03/31 00:24:05;;;;;;;;;;;9.60;99.90;;;;;;6181248;23;19924;-89
2023/03/31 00:26:31;;;;;;;;;;;9.80;99.90;;;;;;6181402;23;19931;-90
2023/03/31 00:29:00;;;;;;;;;;;9.60;99.90;;;;;;6181868;23;19920;-90
2023/03/31 00:31:33;;;;;;;;;;;9.70;99.90;;;;;;6182576;23;22243;-90
2023/03/31 00:33:59;;;;;;;;;;;9.90;99.90;;;;;;6182534;23;19920;-89
2023/03/31 00:36:28;;;;;;;;;;;9.70;99.90;;;;;;6174327;23;19921;-90
2023/03/31 00:38:58;;;;;;;;;;;9.60;99.90;;;;;;6159793;23;19920;-88
2023/03/31 00:41:24;;;;;;;;;;;9.50;99.90;;;;;;6159676;23;19920;-89
2023/03/31 00:44:12;;;;;;;;;;;9.40;99.90;;;;;;6157825;23;19991;-89
2023/03/31 00:46:44;;;;;;;;;;;9.60;99.90;;;;;;6159498;23;19920;-89
2023/03/31 00:49:17;;;;;;;;;;;9.50;99.90;;;;;;6159390;23;19935;-90
2023/03/31 00:51:44;;;;;;;;;;;9.30;99.90;;;;;;6184501;23;20231;-89
2023/03/31 00:54:12;;;;;;;;;;;7.20;99.90;;;;;;6183515;23;20251;-90
2023/03/31 00:56:40;;;;;;;;;;;9.30;99.90;;;;;;6183941;23;19951;-89
2023/03/31 00:59:07;;;;;;;;;;;9.20;99.90;;;;;;6183200;23;20206;-90
2023/03/31 01:01:38;;;;;;;;;;;8.00;99.90;;;;;;6184187;23;19924;-89
2023/03/31 01:04:06;;;;;;;;;;;9.30;99.90;;;;;;6184038;23;19956;-90
2023/03/31 01:06:34;;;;;;;;;;;9.40;99.90;;;;;;6183395;23;20254;-90
2023/03/31 01:09:04;;;;;;;;;;;9.40;99.90;;;;;;6158711;23;19939;-89
2023/03/31 01:11:30;;;;;;;;;;;9.70;99.90;;;;;;6159915;23;20121;-90
2023/03/31 01:13:59;;;;;;;;;;;9.00;99.90;;;;;;6160405;23;19924;-90
2023/03/31 01:16:41;;;;;;;;;;;9.10;99.90;;;;;;6161276;23;19920;-90
2023/03/31 01:19:18;;;;;;;;;;;11.70;99.90;;;;;;6160983;23;19920;-90
2023/03/31 01:22:07;;;;;;;;;;;9.10;99.90;;;;;;6161474;23;19924;-89
2023/03/31 01:25:00;;;;;;;;;;;7.80;99.90;;;;;;6129564;23;19932;-90
2023/03/31 01:27:26;;;;;;;;;;;8.90;99.90;;;;;;6160664;23;20223;-90
2023/03/31 01:30:15;;;;;;;;;;;7.60;99.90;;;;;;6160892;23;19925;-89
2023/03/31 01:32:53;;;;;;;;;;;8.70;99.90;;;;;;6161059;23;20335;-90
2023/03/31 01:35:38;;;;;;;;;;;9.10;99.90;;;;;;6160917;23;19995;-89
2023/03/31 01:38:12;;;;;;;;;;;8.70;99.90;;;;;;6160726;23;19920;-90
2023/03/31 01:40:38;;;;;;;;;;;8.70;99.90;;;;;;6159487;23;19920;-89
2023/03/31 01:43:15;;;;;;;;;;;8.70;99.90;;;;;;6160618;23;19927;-90
2023/03/31 01:45:58;;;;;;;;;;;8.70;99.90;;;;;;6160615;23;19924;-90
2023/03/31 01:48:23;;;;;;;;;;;8.60;99.90;;;;;;6160710;23;20340;-90
2023/03/31 01:50:58;;;;;;;;;;;9.30;99.90;;;;;;6160736;23;19990;-89
2023/03/31 01:53:40;;;;;;;;;;;6.90;99.90;;;;;;6184651;23;19921;-89
2023/03/31 01:56:20;;;;;;;;;;;8.60;99.90;;;;;;6160306;23;20353;-90
2023/03/31 01:58:55;;;;;;;;;;;8.60;99.90;;;;;;6158888;23;19924;-90
2023/03/31 02:01:29;;;;;;;;;;;6.80;99.90;;;;;;6160460;23;20247;-90
2023/03/31 02:04:04;;;;;;;;;;;8.70;99.90;;;;;;6160386;23;19928;-90
2023/03/31 02:06:38;;;;;;;;;;;8.60;99.90;;;;;;6159994;23;20003;-89
2023/03/31 02:09:09;;;;;;;;;;;8.90;99.90;;;;;;6160192;23;19926;-90
2023/03/31 02:11:37;;;;;;;;;;;8.50;99.90;;;;;;6160021;23;19943;-89
2023/03/31 02:14:07;;;;;;;;;;;9.10;99.90;;;;;;6184817;23;19920;-89
2023/03/31 02:16:40;;;;;;;;;;;9.10;99.90;;;;;;6160508;23;20251;-89
2023/03/31 02:19:07;;;;;;;;;;;9.40;99.90;;;;;;6160313;23;19920;-89
2023/03/31 02:21:35;;;;;;;;;;;7.00;99.90;;;;;;6160486;23;19952;-89
2023/03/31 02:24:03;;;;;;;;;;;8.70;99.90;;;;;;6159301;23;19931;-90
2023/03/31 02:26:30;;;;;;;;;;;8.90;99.90;;;;;;6159880;23;20047;-90
2023/03/31 02:28:56;;;;;;;;;;;9.40;99.90;;;;;;6159755;23;20255;-90
2023/03/31 02:31:29;;;;;;;;;;;8.70;99.90;;;;;;6185237;23;20310;-89
2023/03/31 02:33:57;;;;;;;;;;;8.90;99.90;;;;;;6185176;23;19920;-89
2023/03/31 02:36:23;;;;;;;;;;;7.20;99.90;;;;;;6159496;23;20342;-89
2023/03/31 02:38:57;;;;;;;;;;;8.60;99.90;;;;;;6184416;23;20300;-90
2023/03/31 02:41:23;;;;;;;;;;;8.70;99.90;;;;;;6159373;23;19995;-89
2023/03/31 02:43:49;;;;;;;;;;;8.80;99.90;;;;;;6159750;23;20331;-90
2023/03/31 02:46:17;;;;;;;;;;;9.50;99.90;;;;;;6160176;23;19920;-90
2023/03/31 02:48:47;;;;;;;;;;;8.80;99.90;;;;;;6159742;23;19995;-89
2023/03/31 02:51:27;;;;;;;;;;;8.90;99.90;;;;;;6159682;23;19963;-90
2023/03/31 02:54:04;;;;;;;;;;;9.00;99.90;;;;;;6160365;23;19973;-90
2023/03/31 02:56:40;;;;;;;;;;;8.70;99.90;;;;;;6159435;23;19924;-90
2023/03/31 02:59:09;;;;;;;;;;;9.20;99.90;;;;;;6159773;23;19921;-91
2023/03/31 03:01:39;;;;;;;;;;;11.10;99.90;;;;;;6159977;23;20242;-90
2023/03/31 03:04:07;;;;;;;;;;;8.90;99.90;;;;;;6159304;23;19921;-90
2023/03/31 03:06:36;;;;;;;;;;;9.10;99.90;;;;;;6184248;23;20377;-90
2023/03/31 03:09:23;;;;;;;;;;;8.90;99.90;;;;;;6184099;23;20003;-90
2023/03/31 03:12:11;;;;;;;;;;;8.90;99.90;;;;;;6184976;23;19920;-90
2023/03/31 03:15:02;;;;;;;;;;;9.60;99.90;;;;;;6159087;23;19920;-90
2023/03/31 03:17:31;;;;;;;;;;;8.80;99.90;;;;;;6159982;23;19959;-89
2023/03/31 03:19:59;;;;;;;;;;;8.90;99.90;;;;;;6159662;23;19920;-89
2023/03/31 03:22:24;;;;;;;;;;;7.10;99.90;;;;;;6159517;23;20246;-90
2023/03/31 03:24:59;;;;;;;;;;;7.50;99.90;;;;;;6159265;23;19921;-89
2023/03/31 03:27:25;;;;;;;;;;;9.20;99.90;;;;;;6159672;23;19927;-89
2023/03/31 03:29:50;;;;;;;;;;;8.80;99.90;;;;;;6166638;23;19955;-90
2023/03/31 03:32:16;;;;;;;;;;;7.40;99.90;;;;;;6169456;23;19961;-90
2023/03/31 03:34:44;;;;;;;;;;;8.80;99.90;;;;;;6168676;23;19920;-90
2023/03/31 03:37:10;;;;;;;;;;;8.90;99.90;;;;;;6172006;23;19920;-90
2023/03/31 03:39:36;;;;;;;;;;;9.20;99.90;;;;;;6171036;23;19935;-89
2023/03/31 03:42:05;;;;;;;;;;;9.10;99.90;;;;;;6162758;23;19927;-90
2023/03/31 03:44:34;;;;;;;;;;;8.70;99.90;;;;;;6158999;23;20294;-91
2023/03/31 03:46:59;;;;;;;;;;;9.10;99.90;;;;;;6184635;23;19932;-90
2023/03/31 03:49:25;;;;;;;;;;;9.00;99.90;;;;;;6158878;23;19920;-90
2023/03/31 03:51:53;;;;;;;;;;;8.90;99.90;;;;;;6184640;23;19975;-89
2023/03/31 03:54:21;;;;;;;;;;;9.40;99.90;;;;;;6158417;23;19920;-89
2023/03/31 03:56:47;;;;;;;;;;;9.00;99.90;;;;;;6159757;23;19924;-90
2023/03/31 03:59:13;;;;;;;;;;;8.90;99.90;;;;;;6158569;23;19927;-90
2023/03/31 04:01:38;;;;;;;;;;;8.90;99.90;;;;;;6159610;23;19920;-89
2023/03/31 04:04:06;;;;;;;;;;;8.90;99.90;;;;;;6184170;23;20039;-90
2023/03/31 04:06:35;;;;;;;;;;;9.00;99.90;;;;;;6158883;23;19928;-90
2023/03/31 04:09:01;;;;;;;;;;;7.80;99.90;;;;;;6183335;23;19934;-88
2023/03/31 04:11:30;;;;;;;;;;;9.20;99.90;;;;;;6158588;23;19998;-89
2023/03/31 04:13:55;;;;;;;;;;;9.00;99.90;;;;;;6158816;23;19920;-89
2023/03/31 04:16:37;;;;;;;;;;;;;;;;;;;;;
2023/03/31 04:19:20;;;;;;;;;;;9.40;99.90;;;;;;6184216;23;19967;-90
2023/03/31 04:22:01;;;;;;;;;;;9.10;99.90;;;;;;6159744;23;19920;-90
2023/03/31 04:24:31;;;;;;;;;;;9.20;99.90;;;;;;6159990;23;19927;-90
2023/03/31 04:26:58;;;;;;;;;;;9.10;99.90;;;;;;6166023;23;19921;-90
2023/03/31 04:29:25;;;;;;;;;;;9.10;99.90;;;;;;6173568;23;20007;-90
2023/03/31 04:31:57;;;;;;;;;;;9.20;99.90;;;;;;6185645;23;19916;-90
2023/03/31 04:34:25;;;;;;;;;;;7.40;99.90;;;;;;6181169;23;19946;-90
2023/03/31 04:36:54;;;;;;;;;;;7.90;99.90;;;;;;6208440;23;19926;-90
2023/03/31 04:39:29;;;;;;;;;;;9.10;99.90;;;;;;6183208;23;19921;-90
2023/03/31 04:41:58;;;;;;;;;;;7.70;99.90;;;;;;6209671;23;19928;-90
2023/03/31 04:44:23;;;;;;;;;;;9.10;99.90;;;;;;6209898;23;19930;-90
2023/03/31 04:46:49;;;;;;;;;;;9.10;99.90;;;;;;6176656;23;19920;-90
2023/03/31 04:49:18;;;;;;;;;;;9.20;99.90;;;;;;6161842;23;20006;-88
2023/03/31 04:51:44;;;;;;;;;;;9.10;99.90;;;;;;6186760;23;19924;-88
2023/03/31 04:54:10;;;;;;;;;;;9.50;99.90;;;;;;6161605;23;20362;-89
2023/03/31 04:56:35;;;;;;;;;;;9.10;99.90;;;;;;6161315;23;19920;-89
2023/03/31 04:59:02;;;;;;;;;;;9.50;99.90;;;;;;6160640;23;19924;-89
2023/03/31 05:01:34;;;;;;;;;;;8.90;99.90;;;;;;6186237;23;19927;-89
2023/03/31 05:04:03;;;;;;;;;;;9.50;99.90;;;;;;6186130;23;19920;-89
2023/03/31 05:06:31;;;;;;;;;;;9.10;99.90;;;;;;6160068;23;19927;-90
2023/03/31 05:08:59;;;;;;;;;;;9.20;99.90;;;;;;6185705;23;19931;-90
2023/03/31 05:11:26;;;;;;;;;;;9.10;99.90;;;;;;6160934;23;19921;-89
2023/03/31 05:13:51;;;;;;;;;;;9.10;99.90;;;;;;6160552;23;19987;-90
2023/03/31 05:16:20;;;;;;;;;;;9.20;99.90;;;;;;6185978;23;19921;-90
2023/03/31 05:18:46;;;;;;;;;;;9.10;99.90;;;;;;6185676;23;19921;-89
2023/03/31 05:21:13;;;;;;;;;;;9.20;99.90;;;;;;6185912;23;20338;-90
2023/03/31 05:23:42;;;;;;;;;;;9.20;99.90;;;;;;6159744;23;19927;-90
2023/03/31 05:26:10;;;;;;;;;;;8.00;99.90;;;;;;6185087;23;19920;-89
2023/03/31 05:28:45;;;;;;;;;;;9.10;99.90;;;;;;6159965;23;20345;-89
2023/03/31 05:31:11;;;;;;;;;;;9.10;99.90;;;;;;6184691;23;20382;-89
2023/03/31 05:33:42;;;;;;;;;;;9.20;99.90;;;;;;6158905;23;19994;-90
2023/03/31 05:36:11;;;;;;;;;;;9.70;99.90;;;;;;6154873;23;19924;-89
2023/03/31 05:38:42;;;;;;;;;;;9.10;99.90;;;;;;6134398;23;19928;-90
2023/03/31 05:41:08;;;;;;;;;;;9.10;99.90;;;;;;6159078;23;19921;-90
2023/03/31 05:43:35;;;;;;;;;;;7.30;99.90;;;;;;6159389;23;19927;-90
2023/03/31 05:46:03;;;;;;;;;;;9.10;99.90;;;;;;6160008;23;19920;-89
2023/03/31 05:48:31;;;;;;;;;;;7.70;99.90;;;;;;6159646;23;19924;-91
2023/03/31 05:51:00;;;;;;;;;;;7.90;99.90;;;;;;6159571;23;19920;-90
2023/03/31 05:53:26;;;;;;;;;;;9.30;99.90;;;;;;6184329;23;19927;-89
2023/03/31 05:55:56;;;;;;;;;;;9.40;99.90;;;;;;6134300;23;20242;-89
2023/03/31 05:58:25;;;;;;;;;;;9.20;99.90;;;;;;6133521;23;19940;-90
2023/03/31 06:01:00;;;;;;;;;;;10.30;99.90;;;;;;6159789;23;20027;-89
2023/03/31 06:03:25;;;;;;;;;;;9.20;99.90;;;;;;6184408;23;19920;-90
2023/03/31 06:05:52;;;;;;;;;;;9.20;99.90;;;;;;6184537;23;19947;-87
2023/03/31 06:08:18;;;;;;;;;;;9.20;99.90;;;;;;6175515;23;19935;-88
2023/03/31 06:10:44;;;;;;;;;;;9.40;99.90;;;;;;6159946;23;20238;-88
2023/03/31 06:13:09;;;;;;;;;;;9.60;99.90;;;;;;6159282;23;19921;-89
2023/03/31 06:15:35;;;;;;;;;;;9.30;99.90;;;;;;6158839;23;19963;-87
2023/03/31 06:18:01;;;;;;;;;;;9.20;99.90;;;;;;6183564;23;19975;-88
2023/03/31 06:20:26;;;;;;;;;;;9.50;99.90;;;;;;6158737;23;19947;-89
2023/03/31 06:22:52;;;;;;;;;;;7.50;99.90;;;;;;6184176;23;19991;-90
2023/03/31 06:25:20;;;;;;;;;;;9.20;99.90;;;;;;6208021;23;19955;-88
2023/03/31 06:27:46;;;;;;;;;;;9.20;99.90;;;;;;6158855;23;20076;-88
2023/03/31 06:30:12;;;;;;;;;;;9.50;99.90;;;;;;6159071;23;19967;-88
2023/03/31 06:32:37;;;;;;;;;;;9.40;99.90;;;;;;6159108;23;19928;-86
2023/03/31 06:35:03;;;;;;;;;;;9.40;99.90;;;;;;6184006;23;19920;-90
2023/03/31 06:37:29;;;;;;;;;;;9.70;99.90;;;;;;6183650;23;20327;-89
2023/03/31 06:39:55;;;;;;;;;;;9.60;99.90;;;;;;6183103;23;19927;-89
2023/03/31 06:42:20;;;;;;;;;;;9.20;99.90;;;;;;6158674;23;19921;-87
2023/03/31 06:44:46;;;;;;;;;;;9.40;99.90;;;;;;6159157;23;19920;-87
2023/03/31 06:47:12;;;;;;;;;;;9.30;99.90;;;;;;6159067;23;19943;-87
2023/03/31 06:49:37;;;;;;;;;;;9.30;99.90;;;;;;6157994;23;19920;-87
2023/03/31 06:52:03;;;;;;;;;;;9.30;99.90;;;;;;6159425;23;19991;-86
2023/03/31 06:54:29;;;;;;;;;;;9.70;99.90;;;;;;6133202;23;19991;-87
2023/03/31 06:56:55;;;;;;;;;;;9.30;99.90;;;;;;6159447;23;19927;-86
2023/03/31 06:59:23;;;;;;;;;;;9.40;99.90;;;;;;6157565;23;19920;-86
2023/03/31 07:01:49;;;;;;;;;;;9.30;99.90;;;;;;6159260;23;19966;-87
2023/03/31 07:04:15;;;;;;;;;;;9.30;99.90;;;;;;6158703;23;20307;-87
2023/03/31 07:06:43;;;;;;;;;;;9.50;99.90;;;;;;6183261;23;19965;-86
2023/03/31 07:09:08;;;;;;;;;;;9.40;99.90;;;;;;6133770;23;19975;-86
2023/03/31 07:11:34;;;;;;;;;;;7.40;99.90;;;;;;6133957;23;20307;-88
2023/03/31 07:14:03;;;;;;;;;;;9.30;99.90;;;;;;6158376;23;20394;-86
2023/03/31 07:16:31;;;;;;;;;;;8.30;99.90;;;;;;6183616;23;19930;-88
2023/03/31 07:19:02;;;;;;;;;;;9.30;99.90;;;;;;6135394;23;19926;-89
2023/03/31 07:21:34;;;;;;;;;;;9.40;99.90;;;;;;6183877;23;20251;-87
2023/03/31 07:23:59;;;;;;;;;;;11.70;99.90;;;;;;6183273;23;19963;-87
2023/03/31 07:26:25;;;;;;;;;;;9.60;99.90;;;;;;6158756;23;19971;-88
2023/03/31 07:28:53;;;;;;;;;;;9.70;99.90;;;;;;6160042;23;19950;-87
2023/03/31 07:31:19;;;;;;;;;;;9.70;99.90;;;;;;6186043;23;19920;-86
2023/03/31 07:33:48;;;;;;;;;;;9.50;99.90;;;;;;6186279;23;19971;-88
2023/03/31 07:36:13;;;;;;;;;;;9.50;99.90;;;;;;6133541;23;19959;-86
2023/03/31 07:38:40;;;;;;;;;;;9.80;99.90;;;;;;6158621;23;20475;-88
2023/03/31 07:41:11;;;;;;;;;;;9.60;99.90;;;;;;6183461;23;19999;-87
2023/03/31 07:43:40;;;;;;;;;;;9.60;99.90;;;;;;6183256;23;19924;-88
2023/03/31 07:46:07;;;;;;;;;;;8.80;99.90;;;;;;6158444;23;19920;-88
2023/03/31 07:48:35;;;;;;;;;;;9.60;99.90;;;;;;6158796;23;19920;-87
2023/03/31 07:51:18;;;;;;;;;;;9.70;99.90;;;;;;6158552;23;20386;-87
2023/03/31 07:53:44;;;;;;;;;;;9.60;99.90;;;;;;6161800;23;19946;-86
2023/03/31 07:56:10;;;;;;;;;;;9.90;99.90;;;;;;6157519;23;19921;-86
2023/03/31 07:58:38;;;;;;;;;;;9.60;99.90;;;;;;6157907;23;19920;-86
2023/03/31 08:01:24;;;;;;;;;;;9.60;99.90;;;;;;6158821;23;19920;-88
2023/03/31 08:04:01;;;;;;;;;;;9.70;99.90;;;;;;6160423;23;20413;-87
2023/03/31 08:06:34;;;;;;;;;;;9.80;99.90;;;;;;6136113;23;20370;-87
2023/03/31 08:12:09;;;;;;;;;;;;;;;;;;;;;
2023/03/31 08:17:36;;;;;;;;;;;9.60;99.90;;;;;;6122954;23;19927;-87
2023/03/31 08:20:09;;;;;;;;;;;9.60;99.90;;;;;;6184447;23;20391;-87
2023/03/31 08:22:45;;;;;;;;;;;8.10;99.90;;;;;;6159346;23;19991;-86
2023/03/31 08:25:31;;;;;;;;;;;10.00;99.90;;;;;;6136195;23;19963;-88
2023/03/31 08:28:09;;;;;;;;;;;9.70;99.90;;;;;;6157992;23;20230;-88
2023/03/31 08:33:56;;;;;;;;;;;9.10;99.90;;;;;;6166088;23;19920;-87
2023/03/31 08:36:43;;;;;;;;;;;9.70;99.90;;;;;;6159262;23;19924;-87
2023/03/31 08:39:11;;;;;;;;;;;9.60;99.90;;;;;;6159164;23;19920;-88
2023/03/31 08:42:18;;;;;;;;;;;9.60;99.90;;;;;;6134919;23;19968;-88
2023/03/31 08:45:03;;;;;;;;;;;9.40;99.90;;;;;;6094639;23;19921;-86
2023/03/31 08:47:39;;;;;;;;;;;8.60;99.90;;;;;;6155685;23;19920;-87
2023/03/31 08:50:44;;;;;;;;;;;;;;;;;;;;;
2023/03/31 08:53:41;;;;;;;;;;;7.50;99.90;;;;;;6179073;23;20307;-87
2023/03/31 08:56:16;;;;;;;;;;;10.60;99.90;;;;;;6184732;23;19991;-88
2023/03/31 08:58:44;;;;;;;;;;;10.00;99.90;;;;;;6159444;23;20406;-89
2023/03/31 09:01:20;;;;;;;;;;;;;;;;;;;;;
2023/03/31 09:04:15;;;;;;;;;;;10.00;99.90;;;;;;6186363;23;20345;-87
2023/03/31 09:06:55;;;;;;;;;;;10.00;99.90;;;;;;6159480;23;19924;-89
2023/03/31 09:09:37;;;;;;;;;;;10.00;99.90;;;;;;6160383;23;19927;-89
2023/03/31 09:15:13;;;;;;;;;;;10.10;99.90;;;;;;6158103;23;19920;-88
2023/03/31 09:18:01;;;;;;;;;;;10.10;99.90;;;;;;6184041;23;19928;-89
2023/03/31 09:20:33;;;;;;;;;;;10.10;99.90;;;;;;6159858;23;20323;-86
2023/03/31 09:23:13;;;;;;;;;;;10.10;99.90;;;;;;6183950;23;20346;-89
2023/03/31 09:25:50;;;;;;;;;;;;;;;;;;;;;
2023/03/31 09:28:40;;;;;;;;;;;;;;;;;;;;;
2023/03/31 09:31:16;;;;;;;;;;;10.20;99.90;;;;;;6185101;23;20316;-87
2023/03/31 09:34:00;;;;;;;;;;;10.20;99.90;;;;;;6161486;23;19999;-88
2023/03/31 09:36:56;;;;;;;;;;;10.20;99.90;;;;;;6185894;23;19927;-89
2023/03/31 09:39:27;;;;;;;;;;;9.40;99.90;;;;;;6186261;23;19927;-88
2023/03/31 09:42:03;;;;;;;;;;;10.40;99.90;;;;;;6161345;23;20327;-89
2023/03/31 09:44:53;;;;;;;;;;;8.90;99.90;;;;;;6161524;23;19952;-88
2023/03/31 09:47:30;;;;;;;;;;;9.50;99.90;;;;;;6138212;23;19921;-89
2023/03/31 09:49:58;;;;;;;;;;;10.60;99.90;;;;;;6161498;23;19920;-88
2023/03/31 09:52:52;;;;;;;;;;;10.80;99.90;;;;;;6185833;23;19975;-88
2023/03/31 09:55:24;;;;;;;;;;;9.80;99.90;;;;;;6161931;23;19930;-88
2023/03/31 09:57:55;;;;;;;;;;;10.80;99.90;;;;;;6161765;23;19920;-88
2023/03/31 10:00:24;;;;;;;;;;;10.70;99.90;;;;;;6136581;23;19963;-88
2023/03/31 10:03:06;;;;;;;;;;;11.00;99.90;;;;;;6137576;23;19942;-88
2023/03/31 10:11:32;;;;;;;;;;;9.70;99.90;;;;;;6123730;23;19923;-88
2023/03/31 10:14:02;;;;;;;;;;;11.40;99.90;;;;;;6161107;23;20195;-88
2023/03/31 10:16:28;;;;;;;;;;;11.20;99.90;;;;;;6160844;23;19998;-88
2023/03/31 10:18:56;;;;;;;;;;;11.30;99.90;;;;;;6161348;23;19920;-88
2023/03/31 10:21:39;;;;;;;;;;;11.20;99.90;;;;;;6160740;23;19924;-89
2023/03/31 10:24:15;;;;;;;;;;;11.10;99.90;;;;;;6136952;23;20319;-89
2023/03/31 10:26:50;;;;;;;;;;;11.30;99.90;;;;;;6161785;23;19920;-87
2023/03/31 10:29:29;;;;;;;;;;;11.20;99.90;;;;;;6161699;23;20266;-89
2023/03/31 10:34:58;;;;;;;;;;;11.50;99.90;;;;;;6164590;23;19921;-88
2023/03/31 10:37:40;;;;;;;;;;;12.30;99.90;;;;;;6161331;23;19920;-88
2023/03/31 10:40:20;;;;;;;;;;;11.40;99.90;;;;;;6185640;23;19967;-87
2023/03/31 10:43:00;;;;;;;;;;;11.30;99.90;;;;;;6161465;23;19930;-88
2023/03/31 10:45:42;;;;;;;;;;;11.30;99.90;;;;;;6185330;23;19920;-89
2023/03/31 10:48:30;;;;;;;;;;;13.20;99.90;;;;;;6160352;23;19951;-89
2023/03/31 10:51:11;;;;;;;;;;;11.60;99.90;;;;;;6185186;23;19928;-89
2023/03/31 10:56:55;;;;;;;;;;;11.90;99.90;;;;;;6185206;23;19924;-92
2023/03/31 10:59:42;;;;;;;;;;;11.90;99.90;;;;;;6154520;23;20227;-88
2023/03/31 11:02:35;;;;;;;;;;;13.20;99.90;;;;;;6162175;23;19920;-88
2023/03/31 11:05:24;;;;;;;;;;;;;;;;;;;;;
2023/03/31 11:08:23;;;;;;;;;;;;;;;;;;;;;
2023/03/31 11:11:13;;;;;;;;;;;13.20;99.90;;;;;;6185907;23;19991;-87
2023/03/31 11:13:46;;;;;;;;;;;13.00;99.90;;;;;;6160436;23;19967;-89
2023/03/31 11:16:50;;;;;;;;;;;;;;;;;;;;;
2023/03/31 11:19:34;;;;;;;;;;;13.10;99.90;;;;;;6185781;23;19984;-87
2023/03/31 11:22:21;;;;;;;;;;;13.00;99.90;;;;;;6161645;23;19999;-89
2023/03/31 11:24:59;;;;;;;;;;;13.40;99.90;;;;;;6159632;23;19920;-87
2023/03/31 11:27:43;;;;;;;;;;;;;;;;;;;;;
2023/03/31 11:30:31;;;;;;;;;;;13.10;99.90;;;;;;6185783;23;20063;-89
2023/03/31 11:36:07;;;;;;;;;;;13.50;99.90;;;;;;6185022;23;20219;-88
2023/03/31 11:38:46;;;;;;;;;;;13.10;99.90;;;;;;6160183;23;20311;-90
2023/03/31 11:41:21;;;;;;;;;;;15.70;99.90;;;;;;6159964;23;20049;-89
2023/03/31 11:43:58;;;;;;;;;;;14.00;99.90;;;;;;6160000;23;20242;-92
2023/03/31 11:46:31;;;;;;;;;;;13.80;99.90;;;;;;6160242;23;19927;-89
2023/03/31 11:49:05;;;;;;;;;;;13.20;99.90;;;;;;6160735;23;20419;-88
2023/03/31 11:51:40;;;;;;;;;;;13.80;99.90;;;;;;6160124;23;20022;-88
2023/03/31 11:54:11;;;;;;;;;;;13.60;99.90;;;;;;6159571;23;19920;-88
2023/03/31 11:56:55;;;;;;;;;;;13.20;99.90;;;;;;6163096;23;19926;-89
2023/03/31 11:59:40;;;;;;;;;;;13.70;99.90;;;;;;6137473;23;19995;-88
2023/03/31 12:02:11;;;;;;;;;;;12.10;99.90;;;;;;6159859;23;19995;-88
2023/03/31 12:04:39;;;;;;;;;;;13.00;99.90;;;;;;6185559;23;19971;-88
2023/03/31 12:07:16;;;;;;;;;;;12.70;99.90;;;;;;6160749;23;19979;-88
2023/03/31 12:10:04;;;;;;;;;;;;;;;;;;;;;
2023/03/31 12:13:08;;;;;;;;;;;11.50;99.90;;;;;;6185458;23;20022;-89
2023/03/31 12:15:48;;;;;;;;;;;;;;;;;;;;;
2023/03/31 12:21:31;;;;;;;;;;;13.00;99.90;;;;;;6185767;23;19920;-89
2023/03/31 12:24:11;;;;;;;;;;;12.90;99.90;;;;;;6160047;23;19943;-89
2023/03/31 12:26:53;;;;;;;;;;;12.70;99.90;;;;;;6160616;23;20342;-88
2023/03/31 12:29:43;;;;;;;;;;;14.00;99.90;;;;;;6184781;23;20242;-87
2023/03/31 12:32:29;;;;;;;;;;;11.80;99.90;;;;;;6159504;23;20035;-88
2023/03/31 12:35:01;;;;;;;;;;;11.80;99.90;;;;;;6154054;23;19997;-89
2023/03/31 12:37:42;;;;;;;;;;;13.10;99.90;;;;;;6159846;23;19920;-88
2023/03/31 12:40:19;;;;;;;;;;;13.00;99.90;;;;;;6159928;23;20051;-88
2023/03/31 12:42:47;;;;;;;;;;;11.60;99.90;;;;;;6159460;23;19920;-88
2023/03/31 12:45:55;;;;;;;;;;;11.40;99.90;;;;;;6160428;23;20326;-89
2023/03/31 12:48:49;;;;;;;;;;;;;;;;;;;;;
2023/03/31 12:51:43;;;;;;;;;;;13.00;99.90;;;;;;6185382;23;19952;-90
2023/03/31 12:54:30;;;;;;;;;;;14.10;99.90;;;;;;6161560;23;19947;-89
2023/03/31 12:57:19;;;;;;;;;;;13.40;99.90;;;;;;6184781;23;19963;-90
2023/03/31 13:00:22;;;;;;;;;;;13.50;99.90;;;;;;6159437;23;20351;-90
2023/03/31 13:03:32;;;;;;;;;;;13.70;99.90;;;;;;6140091;23;19926;-89
2023/03/31 13:05:58;;;;;;;;;;;13.80;99.90;;;;;;6158707;23;19920;-89
2023/03/31 13:11:49;;;;;;;;;;;13.90;99.90;;;;;;6186621;23;20014;-89
2023/03/31 13:14:41;;;;;;;;;;;14.20;99.90;;;;;;6136786;23;19987;-88
2023/03/31 13:17:30;;;;;;;;;;;14.00;99.90;;;;;;6159455;23;19920;-90
2023/03/31 13:20:08;;;;;;;;;;;13.90;99.90;;;;;;6132906;23;20256;-90
2023/03/31 13:22:51;;;;;;;;;;;13.70;99.90;;;;;;6133164;23;19920;-89
2023/03/31 13:25:33;;;;;;;;;;;13.90;99.90;;;;;;6186117;23;19920;-90
2023/03/31 13:28:32;;;;;;;;;;;;;;;;;;;;;
2023/03/31 13:31:22;;;;;;;;;;;13.60;99.90;;;;;;6178661;23;19921;-90
2023/03/31 13:34:03;;;;;;;;;;;13.50;99.90;;;;;;6185370;23;19920;-90
2023/03/31 13:36:34;;;;;;;;;;;13.50;99.90;;;;;;6161583;23;20327;-87
2023/03/31 13:39:24;;;;;;;;;;;13.20;99.90;;;;;;6162069;23;19920;-88
2023/03/31 13:42:07;;;;;;;;;;;13.20;99.90;;;;;;6162553;23;19920;-88
2023/03/31 13:45:11;;;;;;;;;;;13.20;99.90;;;;;;6161951;23;19946;-89
2023/03/31 13:47:58;;;;;;;;;;;13.20;99.90;;;;;;6160943;23;19924;-91
2023/03/31 13:50:37;;;;;;;;;;;13.20;99.90;;;;;;6160974;23;19921;-89
2023/03/31 13:53:29;;;;;;;;;;;13.40;99.90;;;;;;6162108;23;19921;-91
2023/03/31 13:56:17;;;;;;;;;;;11.10;99.90;;;;;;6162896;23;19952;-90
2023/03/31 13:58:57;;;;;;;;;;;12.70;99.90;;;;;;6161960;23;19921;-90
2023/03/31 14:01:31;;;;;;;;;;;12.20;99.90;;;;;;6160758;23;20282;-89
2023/03/31 14:04:15;;;;;;;;;;;;;;;;;;;;;
2023/03/31 14:06:54;;;;;;;;;;;12.00;99.90;;;;;;6186002;23;19932;-90
2023/03/31 14:09:36;;;;;;;;;;;13.40;99.90;;;;;;6160896;23;19928;-89
2023/03/31 14:12:20;;;;;;;;;;;11.90;99.90;;;;;;6160153;23;19920;-88
2023/03/31 14:15:27;;;;;;;;;;;13.40;99.90;;;;;;6161221;23;19920;-89
2023/03/31 14:18:10;;;;;;;;;;;12.90;99.90;;;;;;6180831;23;19921;-89
2023/03/31 14:20:56;;;;;;;;;;;12.70;99.90;;;;;;6161163;23;19920;-90
2023/03/31 14:23:40;;;;;;;;;;;13.00;99.90;;;;;;6161067;23;19987;-89
2023/03/31 14:26:40;;;;;;;;;;;13.20;99.90;;;;;;6137483;23;19960;-89
2023/03/31 14:29:35;;;;;;;;;;;11.60;99.90;;;;;;6161452;23;19924;-89
2023/03/31 14:32:22;;;;;;;;;;;12.90;99.90;;;;;;6160901;23;19979;-90
2023/03/31 14:35:00;;;;;;;;;;;12.80;99.90;;;;;;6162915;23;19920;-90
2023/03/31 14:37:42;;;;;;;;;;;13.40;99.90;;;;;;6160999;23;19920;-89
2023/03/31 14:40:15;;;;;;;;;;;15.00;99.90;;;;;;6160431;23;19971;-89
2023/03/31 14:42:48;;;;;;;;;;;13.70;99.90;;;;;;6160327;23;19975;-89
2023/03/31 14:45:30;;;;;;;;;;;13.70;99.90;;;;;;6160984;23;19973;-90
2023/03/31 14:48:18;;;;;;;;;;;13.70;99.90;;;;;;6161119;23;19996;-89
2023/03/31 14:53:54;;;;;;;;;;;13.90;99.90;;;;;;6164178;23;19925;-89
2023/03/31 14:56:42;;;;;;;;;;;12.50;99.90;;;;;;6160433;23;19924;-89
2023/03/31 14:59:27;;;;;;;;;;;;;;;;;;;;;
2023/03/31 15:01:58;;;;;;;;;;;14.10;99.90;;;;;;6185578;23;20390;-89
2023/03/31 15:04:37;;;;;;;;;;;;;;;;;;;;;
2023/03/31 15:07:15;;;;;;;;;;;13.80;99.90;;;;;;6186148;23;19921;-90
2023/03/31 15:09:46;;;;;;;;;;;13.80;99.90;;;;;;6160465;23;19920;-90
2023/03/31 15:12:28;;;;;;;;;;;13.40;99.90;;;;;;6185582;23;19928;-89
2023/03/31 15:15:20;;;;;;;;;;;13.20;99.90;;;;;;6185114;23;19999;-90
2023/03/31 15:17:48;;;;;;;;;;;13.50;99.90;;;;;;6160451;23;19999;-91
2023/03/31 15:20:21;;;;;;;;;;;13.20;99.90;;;;;;6136227;23;19921;-90
2023/03/31 15:22:58;;;;;;;;;;;12.40;99.90;;;;;;6160089;23;19920;-91
2023/03/31 15:25:49;;;;;;;;;;;13.40;99.90;;;;;;6136568;23;20239;-90
2023/03/31 15:28:27;;;;;;;;;;;12.30;99.90;;;;;;6185844;23;19927;-89
2023/03/31 15:30:53;;;;;;;;;;;13.00;99.90;;;;;;6161044;23;19920;-90
2023/03/31 15:33:35;;;;;;;;;;;12.30;99.90;;;;;;6185847;23;19990;-89
2023/03/31 15:36:15;;;;;;;;;;;13.50;99.90;;;;;;6161147;23;19996;-90
2023/03/31 15:38:54;;;;;;;;;;;;;;;;;;;;;
2023/03/31 15:41:30;;;;;;;;;;;;;;;;;;;;;
2023/03/31 15:44:09;;;;;;;;;;;11.80;99.90;;;;;;6162468;23;20419;-90
2023/03/31 15:46:38;;;;;;;;;;;13.60;99.90;;;;;;6159882;23;19920;-90
2023/03/31 15:49:21;;;;;;;;;;;13.60;99.90;;;;;;6184597;23;19928;-89
2023/03/31 15:52:11;;;;;;;;;;;13.30;99.90;;;;;;6160633;23;19970;-90
2023/03/31 15:55:01;;;;;;;;;;;12.10;99.90;;;;;;6184381;23;20256;-89
2023/03/31 15:57:36;;;;;;;;;;;13.10;99.90;;;;;;6137157;23;19920;-90
2023/03/31 16:00:35;;;;;;;;;;;12.70;99.90;;;;;;6162304;23;19998;-90
2023/03/31 16:03:07;;;;;;;;;;;12.00;99.90;;;;;;6159894;23;20319;-89
2023/03/31 16:05:46;;;;;;;;;;;11.10;99.90;;;;;;6160733;23;19920;-90
2023/03/31 16:08:18;;;;;;;;;;;13.40;99.90;;;;;;6185648;23;19920;-89